createdAt,value
2022-10-23T00:02:08.405Z,11.02
2022-10-23T00:04:37.643Z,11.03
2022-10-23T00:07:08.803Z,11.02
2022-10-23T00:09:37.815Z,11.02
2022-10-23T00:12:07.949Z,11.02
2022-10-23T00:14:36.970Z,11.01
2022-10-23T00:17:10.991Z,11.00
2022-10-23T00:19:40.343Z,11.00
2022-10-23T00:22:09.159Z,10.99
2022-10-23T00:24:38.073Z,10.98
2022-10-23T00:27:06.988Z,10.97
2022-10-23T00:29:36.955Z,10.95
2022-10-23T00:32:08.179Z,10.94
2022-10-23T00:34:36.868Z,10.92
2022-10-23T00:37:06.056Z,10.89
2022-10-23T00:39:37.205Z,10.86
2022-10-23T00:42:07.270Z,10.83
2022-10-23T00:44:44.783Z,10.81
2022-10-23T00:47:15.078Z,10.78
2022-10-23T00:49:43.685Z,10.75
2022-10-23T00:52:14.290Z,10.73
2022-10-23T00:54:44.350Z,10.71
2022-10-23T00:57:16.468Z,10.69
2022-10-23T00:59:45.511Z,10.68
2022-10-23T01:02:16.455Z,10.67
2022-10-23T01:04:45.406Z,10.66
2022-10-23T01:07:28.983Z,10.65
2022-10-23T01:10:03.301Z,10.64
2022-10-23T01:12:47.224Z,10.61
2022-10-23T01:15:26.852Z,10.60
2022-10-23T01:17:58.005Z,10.58
2022-10-23T01:20:42.179Z,10.57
2022-10-23T01:23:24.154Z,10.56
2022-10-23T01:26:19.890Z,10.55
2022-10-23T01:29:11.782Z,10.54
2022-10-23T01:31:49.892Z,10.54
2022-10-23T01:34:33.034Z,10.53
2022-10-23T01:37:05.497Z,10.54
2022-10-23T01:39:41.943Z,10.55
2022-10-23T01:42:16.030Z,10.58
2022-10-23T01:44:50.226Z,10.59
2022-10-23T01:47:25.763Z,10.60
2022-10-23T01:50:17.255Z,10.59
2022-10-23T01:52:48.229Z,10.61
2022-10-23T01:55:18.513Z,10.61
2022-10-23T01:57:49.091Z,10.62
2022-10-23T02:00:20.281Z,10.64
2022-10-23T02:02:56.251Z,10.66
2022-10-23T02:05:31.544Z,10.69
2022-10-23T02:08:01.588Z,10.73
2022-10-23T02:11:02.100Z,10.77
2022-10-23T02:13:47.823Z,10.83
2022-10-23T02:17:12.010Z,10.88
2022-10-23T02:20:03.003Z,10.93
2022-10-23T02:22:43.738Z,10.95
2022-10-23T02:25:23.557Z,10.95
2022-10-23T02:27:56.702Z,10.95
2022-10-23T02:30:30.534Z,10.94
2022-10-23T02:33:11.436Z,10.95
2022-10-23T02:35:40.756Z,10.95
2022-10-23T02:38:31.005Z,10.94
2022-10-23T02:41:44.458Z,10.93
2022-10-23T02:44:41.005Z,10.93
2022-10-23T02:47:27.941Z,10.91
2022-10-23T02:50:10.497Z,10.89
2022-10-23T02:52:56.008Z,10.88
2022-10-23T02:55:34.556Z,10.87
2022-10-23T02:58:10.800Z,10.86
2022-10-23T03:00:51.181Z,10.86
2022-10-23T03:03:28.001Z,10.85
2022-10-23T03:05:58.771Z,10.84
2022-10-23T03:08:27.536Z,10.84
2022-10-23T03:10:56.705Z,10.82
2022-10-23T03:13:27.027Z,10.82
2022-10-23T03:15:58.180Z,10.81
2022-10-23T03:18:32.620Z,10.81
2022-10-23T03:21:03.289Z,10.80
2022-10-23T03:23:36.853Z,10.80
2022-10-23T03:26:06.764Z,10.80
2022-10-23T03:28:40.765Z,10.79
2022-10-23T03:31:10.161Z,10.79
2022-10-23T03:33:40.864Z,10.78
2022-10-23T03:36:11.845Z,10.77
2022-10-23T03:38:42.064Z,10.77
2022-10-23T03:41:12.227Z,10.77
2022-10-23T03:43:41.223Z,10.77
2022-10-23T03:46:13.382Z,10.77
2022-10-23T03:48:42.815Z,10.77
2022-10-23T03:51:11.912Z,10.76
2022-10-23T03:53:42.651Z,10.75
2022-10-23T03:56:11.861Z,10.75
2022-10-23T03:58:41.659Z,10.75
2022-10-23T04:01:10.300Z,10.75
2022-10-23T04:03:39.416Z,10.76
2022-10-23T04:06:09.100Z,10.77
2022-10-23T04:08:38.972Z,10.77
2022-10-23T04:11:15.101Z,10.78
2022-10-23T04:13:47.344Z,10.77
2022-10-23T04:16:17.724Z,10.78
2022-10-23T04:18:47.382Z,10.78
2022-10-23T04:21:16.126Z,10.78
2022-10-23T04:23:45.821Z,10.78
2022-10-23T04:26:18.448Z,10.77
2022-10-23T04:28:47.649Z,10.77
2022-10-23T04:31:18.753Z,10.76
2022-10-23T04:33:49.605Z,10.75
2022-10-23T04:36:48.292Z,10.75
2022-10-23T04:39:19.391Z,10.75
2022-10-23T04:41:52.008Z,10.75
2022-10-23T04:44:24.279Z,10.75
2022-10-23T04:46:53.741Z,10.74
2022-10-23T04:49:25.284Z,10.75
2022-10-23T04:52:19.672Z,10.75
2022-10-23T04:55:11.747Z,10.74
2022-10-23T04:57:47.637Z,10.74
2022-10-23T05:00:18.948Z,10.75
2022-10-23T05:02:54.677Z,10.75
2022-10-23T05:05:23.883Z,10.76
2022-10-23T05:08:14.226Z,10.77
2022-10-23T05:11:13.858Z,10.78
2022-10-23T05:13:47.257Z,10.80
2022-10-23T05:16:47.321Z,10.82
2022-10-23T05:19:24.294Z,10.84
2022-10-23T05:21:56.482Z,10.85
2022-10-23T05:24:39.318Z,10.89
2022-10-23T05:27:08.318Z,10.92
2022-10-23T05:29:40.701Z,10.96
2022-10-23T05:32:12.862Z,10.99
2022-10-23T05:34:43.669Z,11.01
2022-10-23T05:37:16.326Z,11.03
2022-10-23T05:39:47.288Z,11.05
2022-10-23T05:42:18.433Z,11.07
2022-10-23T05:44:48.211Z,11.09
2022-10-23T05:47:26.016Z,11.11
2022-10-23T05:50:18.533Z,11.14
2022-10-23T05:52:49.054Z,11.17
2022-10-23T05:55:39.483Z,11.21
2022-10-23T05:58:38.873Z,11.26
2022-10-23T06:01:18.828Z,11.32
2022-10-23T06:04:08.010Z,11.40
2022-10-23T06:06:57.457Z,11.48
2022-10-23T06:09:27.187Z,11.54
2022-10-23T06:12:03.420Z,11.58
2022-10-23T06:14:33.760Z,11.63
2022-10-23T06:17:04.134Z,11.70
2022-10-23T06:19:40.322Z,11.77
2022-10-23T06:22:16.178Z,11.82
2022-10-23T06:24:54.871Z,11.87
2022-10-23T06:27:27.519Z,11.92
2022-10-23T06:29:57.112Z,11.99
2022-10-23T06:32:27.175Z,12.05
2022-10-23T06:35:08.460Z,12.10
2022-10-23T06:37:37.810Z,12.17
2022-10-23T06:40:34.519Z,12.24
2022-10-23T06:43:13.299Z,12.32
2022-10-23T06:46:05.204Z,12.40
2022-10-23T06:48:54.769Z,12.50
2022-10-23T06:51:30.285Z,12.60
2022-10-23T06:54:02.321Z,12.70
2022-10-23T06:57:07.848Z,12.82
2022-10-23T06:59:43.177Z,12.94
2022-10-23T07:02:12.515Z,13.07
2022-10-23T07:04:42.300Z,13.18
2022-10-23T07:07:16.247Z,13.27
2022-10-23T07:09:50.798Z,13.35
2022-10-23T07:12:28.445Z,13.41
2022-10-23T07:15:27.417Z,13.50
2022-10-23T07:17:58.986Z,13.56
2022-10-23T07:20:30.899Z,13.61
2022-10-23T07:22:59.703Z,13.66
2022-10-23T07:25:34.354Z,13.72
2022-10-23T07:28:05.151Z,13.81
2022-10-23T07:30:33.889Z,13.91
2022-10-23T07:33:03.183Z,14.03
2022-10-23T07:35:41.314Z,14.14
2022-10-23T07:38:16.631Z,14.25
2022-10-23T07:40:48.683Z,14.35
2022-10-23T07:43:21.201Z,14.46
2022-10-23T07:45:51.456Z,14.57
2022-10-23T07:48:27.946Z,14.67
2022-10-23T07:51:10.970Z,14.78
2022-10-23T07:53:51.756Z,14.91
2022-10-23T07:56:47.356Z,15.03
2022-10-23T07:59:17.008Z,15.13
2022-10-23T08:01:55.081Z,15.20
2022-10-23T08:04:26.701Z,15.28
2022-10-23T08:07:01.506Z,15.35
2022-10-23T08:09:34.861Z,15.43
2022-10-23T08:12:07.043Z,15.54
2022-10-23T08:14:38.222Z,15.66
2022-10-23T08:17:10.222Z,15.77
2022-10-23T08:20:00.933Z,15.88
2022-10-23T08:22:35.926Z,15.94
2022-10-23T08:25:06.698Z,16.01
2022-10-23T08:27:36.938Z,16.08
2022-10-23T08:30:08.679Z,16.15
2022-10-23T08:32:39.444Z,16.24
2022-10-23T08:35:08.863Z,16.33
2022-10-23T08:37:38.293Z,16.41
2022-10-23T08:40:25.807Z,16.48
2022-10-23T08:43:40.625Z,16.55
2022-10-23T08:46:40.417Z,16.61
2022-10-23T08:49:50.982Z,16.61
2022-10-23T08:52:32.393Z,16.59
2022-10-23T08:55:19.294Z,16.60
2022-10-23T08:58:20.348Z,16.63
2022-10-23T09:00:51.161Z,16.67
2022-10-23T09:03:21.966Z,16.76
2022-10-23T09:06:17.557Z,16.89
2022-10-23T09:09:09.215Z,17.05
2022-10-23T09:12:36.851Z,17.20
2022-10-23T09:15:35.238Z,17.36
2022-10-23T09:18:15.725Z,17.47
2022-10-23T09:20:50.533Z,17.56
2022-10-23T09:23:23.473Z,17.64
2022-10-23T09:25:57.278Z,17.69
2022-10-23T09:28:32.659Z,17.74
2022-10-23T09:31:12.553Z,17.78
2022-10-23T09:33:54.465Z,17.84
2022-10-23T09:36:26.657Z,17.90
2022-10-23T09:39:02.566Z,17.94
2022-10-23T09:41:40.384Z,17.98
2022-10-23T09:44:10.906Z,17.97
2022-10-23T09:46:46.932Z,17.94
2022-10-23T09:49:23.700Z,17.89
2022-10-23T09:52:02.035Z,17.77
2022-10-23T09:54:50.938Z,17.65
2022-10-23T09:57:23.170Z,17.62
2022-10-23T09:59:57.337Z,17.63
2022-10-23T10:02:32.222Z,17.67
2022-10-23T10:05:24.516Z,17.75
2022-10-23T10:08:07.278Z,17.84
2022-10-23T10:10:44.358Z,17.88
2022-10-23T10:13:34.820Z,17.86
2022-10-23T10:16:46.395Z,17.81
2022-10-23T10:19:24.320Z,17.77
2022-10-23T10:22:29.390Z,17.77
2022-10-23T10:25:15.678Z,17.75
2022-10-23T10:28:09.666Z,17.81
2022-10-23T10:31:01.848Z,17.93
2022-10-23T10:34:33.383Z,18.01
2022-10-23T10:37:49.366Z,18.10
2022-10-23T10:40:32.075Z,18.19
2022-10-23T10:43:36.911Z,18.25
2022-10-23T10:46:30.478Z,18.30
2022-10-23T10:49:09.665Z,18.32
2022-10-23T10:51:49.483Z,18.34
2022-10-23T10:54:30.257Z,18.41
2022-10-23T10:57:05.840Z,18.48
2022-10-23T10:59:44.526Z,18.52
2022-10-23T11:02:21.698Z,18.59
2022-10-23T11:05:14.857Z,18.62
2022-10-23T11:07:56.462Z,18.60
2022-10-23T11:10:25.364Z,18.59
2022-10-23T11:12:54.975Z,18.61
2022-10-23T11:15:41.017Z,18.68
2022-10-23T11:18:25.007Z,18.77
2022-10-23T11:21:13.471Z,18.83
2022-10-23T11:23:46.264Z,18.89
2022-10-23T11:26:53.567Z,18.90
2022-10-23T11:29:34.063Z,18.94
2022-10-23T11:32:21.569Z,18.97
2022-10-23T11:34:56.614Z,18.99
2022-10-23T11:37:27.347Z,19.01
2022-10-23T11:40:09.820Z,19.02
2022-10-23T11:42:44.259Z,19.06
2022-10-23T11:45:35.524Z,19.12
2022-10-23T11:48:21.207Z,19.20
2022-10-23T11:50:58.172Z,19.23
2022-10-23T11:53:33.687Z,19.25
2022-10-23T11:56:14.996Z,19.30
2022-10-23T11:58:57.289Z,19.36
2022-10-23T12:01:42.090Z,19.42
2022-10-23T12:04:15.436Z,19.47
2022-10-23T12:07:37.822Z,19.51
2022-10-23T12:10:20.011Z,19.55
2022-10-23T12:13:04.007Z,19.58
2022-10-23T12:15:36.775Z,19.67
2022-10-23T12:18:27.884Z,19.77
2022-10-23T12:21:05.418Z,19.85
2022-10-23T12:23:47.372Z,19.92
2022-10-23T12:26:20.290Z,19.95
2022-10-23T12:29:16.054Z,19.96
2022-10-23T12:32:14.628Z,19.96
2022-10-23T12:35:35.201Z,20.02
2022-10-23T12:38:16.316Z,20.06
2022-10-23T12:41:17.311Z,20.10
2022-10-23T12:44:00.127Z,20.12
2022-10-23T12:46:34.924Z,20.15
2022-10-23T12:49:16.629Z,20.14
2022-10-23T12:51:54.311Z,20.07
2022-10-23T12:54:25.004Z,20.04
2022-10-23T12:56:55.510Z,19.98
2022-10-23T12:59:39.566Z,19.95
2022-10-23T13:02:35.742Z,19.91
2022-10-23T13:05:13.829Z,19.84
2022-10-23T13:07:51.132Z,19.74
2022-10-23T13:10:26.600Z,19.66
2022-10-23T13:13:07.561Z,19.55
2022-10-23T13:15:46.302Z,19.48
2022-10-23T13:18:18.534Z,19.45
2022-10-23T13:20:55.114Z,19.39
2022-10-23T13:23:50.748Z,19.30
2022-10-23T13:26:31.432Z,19.23
2022-10-23T13:29:07.340Z,19.18
2022-10-23T13:31:45.340Z,19.12
2022-10-23T13:34:25.136Z,19.08
2022-10-23T13:37:27.094Z,19.03
2022-10-23T13:40:20.813Z,18.96
2022-10-23T13:42:50.832Z,18.87
2022-10-23T13:45:22.862Z,18.81
2022-10-23T13:47:52.436Z,18.81
2022-10-23T13:50:21.740Z,18.80
2022-10-23T13:52:53.114Z,18.79
2022-10-23T13:55:27.345Z,18.75
2022-10-23T13:57:57.834Z,18.74
2022-10-23T14:00:27.739Z,18.70
2022-10-23T14:02:56.728Z,18.66
2022-10-23T14:05:26.461Z,18.62
2022-10-23T14:07:56.677Z,18.58
2022-10-23T14:10:28.184Z,18.55
2022-10-23T14:12:58.245Z,18.52
2022-10-23T14:15:28.646Z,18.49
2022-10-23T14:18:04.625Z,18.45
2022-10-23T14:20:39.043Z,18.42
2022-10-23T14:23:08.513Z,18.39
2022-10-23T14:25:38.831Z,18.34
2022-10-23T14:28:07.885Z,18.29
2022-10-23T14:30:37.966Z,18.25
2022-10-23T14:33:07.575Z,18.20
2022-10-23T14:35:42.729Z,18.14
2022-10-23T14:38:13.003Z,18.08
2022-10-23T14:40:42.319Z,18.01
2022-10-23T14:43:11.978Z,17.93
2022-10-23T14:45:41.704Z,17.85
2022-10-23T14:48:11.932Z,17.77
2022-10-23T14:50:46.115Z,17.69
2022-10-23T14:53:16.535Z,17.61
2022-10-23T14:55:45.430Z,17.54
2022-10-23T14:58:15.818Z,17.47
2022-10-23T15:00:45.461Z,17.39
2022-10-23T15:03:16.047Z,17.29
2022-10-23T15:05:47.024Z,17.21
2022-10-23T15:08:16.735Z,17.15
2022-10-23T15:10:47.058Z,17.07
2022-10-23T15:13:17.261Z,17.01
2022-10-23T15:15:46.500Z,16.96
2022-10-23T15:18:20.087Z,16.90
2022-10-23T15:20:55.170Z,16.84
2022-10-23T15:23:25.508Z,16.76
2022-10-23T15:25:59.595Z,16.70
2022-10-23T15:28:30.152Z,16.64
2022-10-23T15:31:07.111Z,16.57
2022-10-23T15:33:44.141Z,16.50
2022-10-23T15:36:15.311Z,16.43
2022-10-23T15:38:46.411Z,16.36
2022-10-23T15:41:18.425Z,16.31
2022-10-23T15:43:47.631Z,16.26
2022-10-23T15:46:16.265Z,16.20
2022-10-23T15:48:44.309Z,16.13
2022-10-23T15:51:12.355Z,16.05
2022-10-23T15:53:43.688Z,15.97
2022-10-23T15:56:14.174Z,15.91
2022-10-23T15:58:43.578Z,15.86
2022-10-23T16:01:13.932Z,15.80
2022-10-23T16:03:43.495Z,15.74
2022-10-23T16:06:15.392Z,15.67
2022-10-23T16:08:47.692Z,15.60
2022-10-23T16:11:20.539Z,15.53
2022-10-23T16:13:50.539Z,15.46
2022-10-23T16:16:20.231Z,15.39
2022-10-23T16:18:50.530Z,15.32
2022-10-23T16:21:27.297Z,15.26
2022-10-23T16:24:00.333Z,15.20
2022-10-23T16:26:32.354Z,15.15
2022-10-23T16:29:06.897Z,15.08
2022-10-23T16:31:36.521Z,15.01
2022-10-23T16:34:07.103Z,14.95
2022-10-23T16:36:42.472Z,14.88
2022-10-23T16:39:32.150Z,14.81
2022-10-23T16:42:37.303Z,14.73
2022-10-23T16:45:25.047Z,14.65
2022-10-23T16:47:53.960Z,14.59
2022-10-23T16:50:23.963Z,14.54
2022-10-23T16:52:55.793Z,14.48
2022-10-23T16:55:25.743Z,14.42
2022-10-23T16:57:55.624Z,14.37
2022-10-23T17:00:24.852Z,14.32
2022-10-23T17:02:57.171Z,14.26
2022-10-23T17:05:30.196Z,14.21
2022-10-23T17:07:59.198Z,14.15
2022-10-23T17:10:30.349Z,14.09
2022-10-23T17:13:03.366Z,14.06
2022-10-23T17:15:35.857Z,14.02
2022-10-23T17:18:07.848Z,13.98
2022-10-23T17:20:38.541Z,13.94
2022-10-23T17:23:09.198Z,13.91
2022-10-23T17:25:41.591Z,13.88
2022-10-23T17:28:14.311Z,13.85
2022-10-23T17:30:45.948Z,13.83
2022-10-23T17:33:17.001Z,13.80
2022-10-23T17:35:49.130Z,13.78
2022-10-23T17:38:19.445Z,13.76
2022-10-23T17:40:53.846Z,13.75
2022-10-23T17:43:23.325Z,13.73
2022-10-23T17:45:52.327Z,13.72
2022-10-23T17:48:23.913Z,13.73
2022-10-23T17:51:05.301Z,13.73
2022-10-23T17:53:37.419Z,13.73
2022-10-23T17:56:09.385Z,13.72
2022-10-23T17:58:41.777Z,13.72
2022-10-23T18:01:15.390Z,13.72
2022-10-23T18:03:48.844Z,13.72
2022-10-23T18:06:32.768Z,13.70
2022-10-23T18:09:06.869Z,13.71
2022-10-23T18:11:45.415Z,13.70
2022-10-23T18:14:20.818Z,13.71
2022-10-23T18:16:56.337Z,13.70
2022-10-23T18:19:33.344Z,13.69
2022-10-23T18:22:04.168Z,13.67
2022-10-23T18:24:37.995Z,13.65
2022-10-23T18:27:08.588Z,13.64
2022-10-23T18:29:38.678Z,13.62
2022-10-23T18:32:12.701Z,13.60
2022-10-23T18:34:42.094Z,13.58
2022-10-23T18:37:12.770Z,13.55
2022-10-23T18:39:42.258Z,13.53
2022-10-23T18:42:13.578Z,13.51
2022-10-23T18:44:50.270Z,13.49
2022-10-23T18:47:19.390Z,13.49
2022-10-23T18:49:49.902Z,13.49
2022-10-23T18:52:22.044Z,13.48
2022-10-23T18:54:51.491Z,13.48
2022-10-23T18:57:22.557Z,13.49
2022-10-23T18:59:59.649Z,13.50
2022-10-23T19:02:30.994Z,13.50
2022-10-23T19:05:02.349Z,13.49
2022-10-23T19:07:33.790Z,13.49
2022-10-23T19:10:04.182Z,13.48
2022-10-23T19:12:34.750Z,13.46
2022-10-23T19:15:10.564Z,13.45
2022-10-23T19:17:41.387Z,13.42
2022-10-23T19:20:16.396Z,13.40
2022-10-23T19:22:49.655Z,13.38
2022-10-23T19:25:45.774Z,13.35
2022-10-23T19:28:14.939Z,13.33
2022-10-23T19:30:44.413Z,13.32
2022-10-23T19:33:13.961Z,13.30
2022-10-23T19:35:45.636Z,13.29
2022-10-23T19:38:17.143Z,13.27
2022-10-23T19:40:49.115Z,13.27
2022-10-23T19:43:17.808Z,13.25
2022-10-23T19:45:46.901Z,13.26
2022-10-23T19:48:17.258Z,13.26
2022-10-23T19:50:46.705Z,13.25
2022-10-23T19:53:19.700Z,13.26
2022-10-23T19:55:54.251Z,13.29
2022-10-23T19:58:29.480Z,13.33
2022-10-23T20:00:57.958Z,13.41
2022-10-23T20:03:29.771Z,13.48
2022-10-23T20:06:01.332Z,13.55
2022-10-23T20:08:34.951Z,13.61
2022-10-23T20:11:12.856Z,13.65
2022-10-23T20:13:42.512Z,13.68
2022-10-23T20:16:22.991Z,13.71
2022-10-23T20:18:54.690Z,13.75
2022-10-23T20:21:27.073Z,13.78
2022-10-23T20:24:00.788Z,13.81
2022-10-23T20:26:33.667Z,13.84
2022-10-23T20:29:05.184Z,13.87
2022-10-23T20:31:37.028Z,13.89
2022-10-23T20:34:08.945Z,13.92
2022-10-23T20:36:46.375Z,13.93
2022-10-23T20:39:30.112Z,13.94
2022-10-23T20:42:01.648Z,13.94
2022-10-23T20:44:32.619Z,13.94
2022-10-23T20:47:01.815Z,13.94
2022-10-23T20:49:33.652Z,13.93
2022-10-23T20:52:04.577Z,13.90
2022-10-23T20:54:37.432Z,13.88
2022-10-23T20:57:09.673Z,13.86
2022-10-23T20:59:42.743Z,13.84
2022-10-23T21:02:13.267Z,13.82
2022-10-23T21:04:46.361Z,13.80
2022-10-23T21:07:19.321Z,13.80
2022-10-23T21:09:52.038Z,13.79
2022-10-23T21:12:19.988Z,13.77
2022-10-23T21:14:55.157Z,13.76
2022-10-23T21:17:24.118Z,13.75
2022-10-23T21:19:52.973Z,13.74
2022-10-23T21:22:21.540Z,13.73
2022-10-23T21:24:53.854Z,13.71
2022-10-23T21:27:24.130Z,13.70
2022-10-23T21:29:54.057Z,13.70
2022-10-23T21:32:24.165Z,13.70
2022-10-23T21:34:57.599Z,13.70
2022-10-23T21:37:27.164Z,13.71
2022-10-23T21:40:00.211Z,13.72
2022-10-23T21:42:31.400Z,13.74
2022-10-23T21:45:00.468Z,13.75
2022-10-23T21:47:31.320Z,13.76
2022-10-23T21:50:01.970Z,13.77
2022-10-23T21:52:31.419Z,13.78
2022-10-23T21:55:03.559Z,13.79
2022-10-23T21:57:35.624Z,13.81
2022-10-23T22:00:07.323Z,13.81
2022-10-23T22:02:45.098Z,13.81
2022-10-23T22:05:18.517Z,13.83
2022-10-23T22:07:48.791Z,13.85
2022-10-23T22:10:18.532Z,13.87
2022-10-23T22:12:47.666Z,13.88
2022-10-23T22:15:21.599Z,13.87
2022-10-23T22:17:54.004Z,13.88
2022-10-23T22:20:24.620Z,13.88
2022-10-23T22:22:57.227Z,13.89
2022-10-23T22:25:26.955Z,13.91
2022-10-23T22:27:56.610Z,13.92
2022-10-23T22:30:27.240Z,13.92
2022-10-23T22:32:58.926Z,13.91
2022-10-23T22:35:30.779Z,13.89
2022-10-23T22:38:00.625Z,13.87
2022-10-23T22:40:28.473Z,13.88
2022-10-23T22:42:59.547Z,13.90
2022-10-23T22:45:29.055Z,13.93
2022-10-23T22:47:59.908Z,13.99
2022-10-23T22:50:28.332Z,14.06
2022-10-23T22:52:59.794Z,14.15
2022-10-23T22:55:30.054Z,14.20
2022-10-23T22:57:57.784Z,14.24
2022-10-23T23:00:26.256Z,14.29
2022-10-23T23:02:55.577Z,14.33
2022-10-23T23:05:25.736Z,14.38
2022-10-23T23:07:54.664Z,14.42
2022-10-23T23:10:23.426Z,14.47
2022-10-23T23:12:56.127Z,14.52
2022-10-23T23:15:25.776Z,14.57
2022-10-23T23:17:59.308Z,14.61
2022-10-23T23:20:29.976Z,14.66
2022-10-23T23:22:57.815Z,14.71
2022-10-23T23:25:26.263Z,14.75
2022-10-23T23:27:54.547Z,14.78
2022-10-23T23:30:23.280Z,14.81
2022-10-23T23:32:52.734Z,14.85
2022-10-23T23:35:20.972Z,14.87
2022-10-23T23:37:48.733Z,14.88
2022-10-23T23:40:17.046Z,14.91
2022-10-23T23:42:47.172Z,14.94
2022-10-23T23:45:15.396Z,14.95
2022-10-23T23:47:51.481Z,14.98
2022-10-23T23:50:28.314Z,14.99
2022-10-23T23:52:57.164Z,14.99
2022-10-23T23:55:26.225Z,15.02
2022-10-23T23:57:55.470Z,15.05
